Time;durP1;ratioP1;P1;durP2;ratioP2;P2;SDS_P1;SDS_P2;PMS_P1;PMS_P2;Temp;Humidity;BMP_temperature;BMP_pressure;BME280_temperature;BME280_humidity;BME280_pressure;Samples;Min_cycle;Max_cycle;Signal;HPM_P1;HPM_P2
2023/04/11 00:02:08;;;;;;;3.13;2.60;;;13.00;99.90;;;;;;5085967;28;20443;-71
2023/04/11 00:04:54;;;;;;;12.90;2.67;;;13.00;99.90;;;;;;5086658;28;20417;-71
2023/04/11 00:07:40;;;;;;;7.50;3.70;;;13.00;99.90;;;;;;5088048;28;21067;-71
2023/04/11 00:10:25;;;;;;;6.60;3.20;;;13.00;99.90;;;;;;5086981;28;20771;-71
2023/04/11 00:13:11;;;;;;;7.50;3.37;;;13.00;99.90;;;;;;5079498;28;20447;-71
2023/04/11 00:16:01;;;;;;;10.93;3.30;;;13.00;99.90;;;;;;5085151;28;20850;-70
2023/04/11 00:18:47;;;;;;;5.63;3.50;;;13.00;99.90;;;;;;5080946;28;20440;-71
2023/04/11 00:21:34;;;;;;;5.63;2.80;;;13.00;99.90;;;;;;5081538;28;20565;-72
2023/04/11 00:24:19;;;;;;;4.13;2.90;;;13.00;99.90;;;;;;5086446;28;20440;-72
2023/04/11 00:27:06;;;;;;;4.93;3.30;;;13.10;99.90;;;;;;5087386;28;21163;-71
2023/04/11 00:29:51;;;;;;;4.93;2.83;;;13.00;99.90;;;;;;5083005;28;21254;-71
2023/04/11 00:32:38;;;;;;;5.23;3.40;;;13.10;99.90;;;;;;5082534;28;20451;-70
2023/04/11 00:35:24;;;;;;;3.97;2.97;;;13.00;99.90;;;;;;5087750;28;20421;-70
2023/04/11 00:38:09;;;;;;;7.10;3.20;;;12.90;99.90;;;;;;5092349;28;20449;-71
2023/04/11 00:40:55;;;;;;;4.37;3.47;;;12.90;99.90;;;;;;5084637;28;20532;-71
2023/04/11 00:43:40;;;;;;;5.73;3.20;;;12.80;99.90;;;;;;5088410;28;20546;-71
2023/04/11 00:46:26;;;;;;;5.20;3.23;;;12.80;99.90;;;;;;5081598;28;20887;-72
2023/04/11 00:49:13;;;;;;;3.70;2.90;;;12.80;99.90;;;;;;5092074;28;20443;-71
2023/04/11 00:51:59;;;;;;;6.80;4.20;;;12.70;99.90;;;;;;5085979;28;20443;-71
2023/04/11 00:54:45;;;;;;;3.23;2.70;;;12.60;99.90;;;;;;5087190;28;20468;-71
2023/04/11 00:57:31;;;;;;;6.07;3.37;;;12.70;99.90;;;;;;5090683;28;20795;-71
2023/04/11 01:00:17;;;;;;;4.20;2.60;;;12.70;99.90;;;;;;5088137;28;20473;-71
2023/04/11 01:03:03;;;;;;;4.80;3.20;;;12.70;99.90;;;;;;5080397;28;20434;-73
2023/04/11 01:05:52;;;;;;;4.20;2.40;;;12.70;99.90;;;;;;5090219;28;20554;-71
2023/04/11 01:08:39;;;;;;;4.60;3.10;;;12.60;99.90;;;;;;5089284;28;20426;-72
2023/04/11 01:11:25;;;;;;;7.87;3.00;;;12.50;99.90;;;;;;5088845;28;20522;-72
2023/04/11 01:14:11;;;;;;;4.63;3.00;;;12.50;99.90;;;;;;5089965;28;20467;-70
2023/04/11 01:16:57;;;;;;;4.33;2.80;;;12.50;99.90;;;;;;5091290;28;20447;-70
2023/04/11 01:19:43;;;;;;;3.77;3.17;;;12.50;99.90;;;;;;5086915;28;20444;-70
2023/04/11 01:22:30;;;;;;;5.83;4.47;;;12.40;99.90;;;;;;5083805;28;20410;-71
2023/04/11 01:25:21;;;;;;;3.73;2.50;;;12.30;99.90;;;;;;5091159;28;20427;-71
2023/04/11 01:28:07;;;;;;;8.90;3.20;;;12.30;99.90;;;;;;5090596;28;20452;-71
2023/04/11 01:30:53;;;;;;;4.17;3.00;;;12.20;99.90;;;;;;5088366;28;20472;-71
2023/04/11 01:33:39;;;;;;;5.67;3.17;;;12.20;99.90;;;;;;5088752;28;20480;-70
2023/04/11 01:36:25;;;;;;;5.10;3.47;;;12.30;99.90;;;;;;5088478;28;20414;-70
2023/04/11 01:39:11;;;;;;;4.13;3.17;;;12.30;99.90;;;;;;5090711;28;20429;-71
2023/04/11 01:42:00;;;;;;;3.27;2.23;;;12.30;99.90;;;;;;5084924;28;20454;-71
2023/04/11 01:44:46;;;;;;;2.70;1.93;;;12.30;99.90;;;;;;5087025;28;20867;-71
2023/04/11 01:47:31;;;;;;;6.33;1.90;;;12.20;99.90;;;;;;5083624;28;20426;-71
2023/04/11 01:50:17;;;;;;;3.53;1.60;;;12.10;99.90;;;;;;5087031;28;20896;-71
2023/04/11 01:53:03;;;;;;;3.80;1.70;;;11.90;99.90;;;;;;5087119;28;20484;-71
2023/04/11 01:55:49;;;;;;;2.40;1.20;;;11.90;99.90;;;;;;5091439;28;20451;-71
2023/04/11 01:58:36;;;;;;;3.20;1.97;;;11.80;99.90;;;;;;5092030;28;20443;-70
2023/04/11 02:01:21;;;;;;;4.23;1.30;;;11.80;99.90;;;;;;5079559;28;20438;-71
2023/04/11 02:04:07;;;;;;;4.20;1.60;;;11.80;99.90;;;;;;5090108;28;20975;-70
2023/04/11 02:06:53;;;;;;;2.73;1.60;;;11.90;99.90;;;;;;5090213;28;20418;-71
2023/04/11 02:09:38;;;;;;;5.80;1.60;;;11.80;99.90;;;;;;5090849;28;20549;-72
2023/04/11 02:12:24;;;;;;;4.60;2.20;;;11.90;99.90;;;;;;5084080;28;20809;-71
2023/04/11 02:15:11;;;;;;;3.57;1.50;;;11.80;99.90;;;;;;5090022;28;20444;-71
2023/04/11 02:17:59;;;;;;;6.30;1.90;;;11.80;99.90;;;;;;5084913;28;20448;-71
2023/04/11 02:20:44;;;;;;;2.63;1.80;;;11.80;99.90;;;;;;5078045;28;20464;-70
2023/04/11 02:23:30;;;;;;;7.17;1.70;;;11.80;99.90;;;;;;5082933;28;20440;-72
2023/04/11 02:26:15;;;;;;;3.17;1.50;;;11.80;99.90;;;;;;5085592;28;20433;-70
2023/04/11 02:29:01;;;;;;;3.20;1.50;;;11.80;99.90;;;;;;5089172;28;20501;-70
2023/04/11 02:31:49;;;;;;;2.47;1.13;;;11.80;99.90;;;;;;5085817;28;20435;-70
2023/04/11 02:34:35;;;;;;;2.00;1.20;;;11.90;99.90;;;;;;5085883;28;20457;-71
2023/04/11 02:37:20;;;;;;;6.80;1.33;;;11.80;99.90;;;;;;5090459;28;20449;-71
2023/04/11 02:40:08;;;;;;;2.17;0.97;;;11.80;99.90;;;;;;5085839;28;20412;-72
2023/04/11 02:42:54;;;;;;;1.70;1.10;;;11.80;99.90;;;;;;5089188;28;20463;-71
2023/04/11 02:45:40;;;;;;;4.73;0.90;;;11.80;99.90;;;;;;5085176;28;20414;-71
2023/04/11 02:48:26;;;;;;;3.60;1.10;;;11.70;99.90;;;;;;5088285;28;20446;-72
2023/04/11 02:51:12;;;;;;;2.40;0.83;;;11.70;99.90;;;;;;5084726;28;21002;-71
2023/04/11 02:53:57;;;;;;;3.40;1.10;;;11.70;99.90;;;;;;5090044;28;20447;-73
2023/04/11 02:56:43;;;;;;;2.93;1.10;;;11.70;99.90;;;;;;5088463;28;20577;-71
2023/04/11 02:59:28;;;;;;;6.43;1.10;;;11.50;99.90;;;;;;5083267;28;20540;-72
2023/04/11 03:02:14;;;;;;;2.70;1.20;;;11.40;99.90;;;;;;5085388;28;21006;-73
2023/04/11 03:05:03;;;;;;;2.53;1.13;;;11.40;99.90;;;;;;5089960;28;20444;-71
2023/04/11 03:07:48;;;;;;;2.63;1.17;;;11.40;99.90;;;;;;5088951;28;20422;-71
2023/04/11 03:10:34;;;;;;;2.93;1.60;;;11.40;99.90;;;;;;5082132;28;21017;-71
2023/04/11 03:13:20;;;;;;;2.13;0.83;;;11.40;99.90;;;;;;5086697;28;20459;-71
2023/04/11 03:16:06;;;;;;;5.10;1.17;;;11.40;99.90;;;;;;5080638;28;20523;-71
2023/04/11 03:18:52;;;;;;;5.37;1.53;;;11.40;99.90;;;;;;5079581;28;20558;-71
2023/04/11 03:21:39;;;;;;;2.80;1.20;;;11.50;99.90;;;;;;5083134;28;20852;-71
2023/04/11 03:24:25;;;;;;;6.73;1.10;;;11.50;99.90;;;;;;5084760;28;20468;-71
2023/04/11 03:27:10;;;;;;;2.20;1.10;;;11.40;99.90;;;;;;5086202;28;20416;-71
2023/04/11 03:29:56;;;;;;;5.60;1.00;;;11.40;99.90;;;;;;5075072;28;20446;-71
2023/04/11 03:32:42;;;;;;;4.53;1.10;;;11.50;99.90;;;;;;5080741;28;20411;-71
2023/04/11 03:35:28;;;;;;;4.20;1.20;;;11.40;99.90;;;;;;5088500;28;20426;-72
2023/04/11 03:38:14;;;;;;;3.63;0.90;;;11.40;99.90;;;;;;5089470;28;20417;-71
2023/04/11 03:41:00;;;;;;;2.80;0.83;;;11.40;99.90;;;;;;5087974;28;20815;-71
2023/04/11 03:43:46;;;;;;;1.90;0.97;;;11.30;99.90;;;;;;5087836;28;20522;-73
2023/04/11 03:46:32;;;;;;;5.10;1.23;;;11.30;99.90;;;;;;5084186;28;20832;-71
2023/04/11 03:49:17;;;;;;;3.27;1.20;;;11.30;99.90;;;;;;5083371;28;20519;-71
2023/04/11 03:52:04;;;;;;;2.20;1.00;;;11.10;99.90;;;;;;5087258;28;20975;-71
2023/04/11 03:54:51;;;;;;;2.27;1.00;;;11.10;99.90;;;;;;5088729;28;20575;-71
2023/04/11 03:57:36;;;;;;;2.30;1.43;;;11.10;99.90;;;;;;5085370;28;21161;-72
2023/04/11 04:00:22;;;;;;;4.33;1.13;;;11.20;99.90;;;;;;5083760;28;20436;-71
2023/04/11 04:03:07;;;;;;;5.50;1.60;;;11.30;99.90;;;;;;5087187;28;20457;-71
2023/04/11 04:05:53;;;;;;;3.63;1.33;;;11.10;99.90;;;;;;5088459;28;20562;-71
2023/04/11 04:08:39;;;;;;;2.50;1.07;;;11.00;99.90;;;;;;5090485;28;20952;-71
2023/04/11 04:11:26;;;;;;;6.70;1.07;;;10.90;99.90;;;;;;5090656;28;20512;-70
2023/04/11 04:14:12;;;;;;;4.70;1.30;;;10.90;99.90;;;;;;5092456;28;20689;-73
2023/04/11 04:16:57;;;;;;;4.00;1.37;;;10.90;99.90;;;;;;5086811;28;20520;-71
2023/04/11 04:19:44;;;;;;;5.90;1.53;;;10.90;99.90;;;;;;5084730;28;20497;-70
2023/04/11 04:22:29;;;;;;;8.13;1.70;;;10.90;99.90;;;;;;5089671;28;20450;-72
2023/04/11 04:25:18;;;;;;;2.67;1.10;;;10.90;99.90;;;;;;5089851;28;21172;-71
2023/04/11 04:28:06;;;;;;;3.07;1.10;;;10.80;99.90;;;;;;5088987;28;20565;-71
2023/04/11 04:30:53;;;;;;;4.03;1.37;;;10.80;99.90;;;;;;5088716;28;20566;-71
2023/04/11 04:33:45;;;;;;;2.73;1.60;;;10.80;99.90;;;;;;5091789;28;20498;-71
2023/04/11 04:36:30;;;;;;;10.80;1.50;;;10.80;99.90;;;;;;5088870;28;20934;-70
2023/04/11 04:39:17;;;;;;;3.50;1.20;;;10.90;99.90;;;;;;5086500;28;20462;-71
2023/04/11 04:42:03;;;;;;;3.17;1.30;;;10.80;99.90;;;;;;5087922;28;20596;-71
2023/04/11 04:44:50;;;;;;;3.67;2.07;;;10.80;99.90;;;;;;5088391;28;20996;-71
2023/04/11 04:47:37;;;;;;;5.17;1.90;;;10.80;99.90;;;;;;5087907;28;20486;-71
2023/04/11 04:50:22;;;;;;;7.13;1.43;;;10.70;99.90;;;;;;5085130;28;20468;-71
2023/04/11 04:53:08;;;;;;;4.03;1.30;;;10.70;99.90;;;;;;5091717;28;20433;-71
2023/04/11 04:55:54;;;;;;;2.53;1.77;;;10.60;99.90;;;;;;5092513;28;20422;-71
2023/04/11 04:58:39;;;;;;;4.77;1.90;;;10.50;99.90;;;;;;5083697;28;21058;-71
2023/04/11 05:01:26;;;;;;;4.80;1.47;;;10.60;99.90;;;;;;5090940;28;20453;-71
2023/04/11 05:04:12;;;;;;;3.80;1.87;;;10.70;99.90;;;;;;5089686;28;20446;-72
2023/04/11 05:06:57;;;;;;;3.23;1.60;;;10.60;99.90;;;;;;5090946;28;20497;-71
2023/04/11 05:09:43;;;;;;;3.70;1.90;;;10.60;99.90;;;;;;5089107;28;20413;-71
2023/04/11 05:12:29;;;;;;;4.90;1.80;;;10.60;99.90;;;;;;5091428;28;20537;-71
2023/04/11 05:15:14;;;;;;;2.90;1.50;;;10.60;99.90;;;;;;5090233;28;20457;-71
2023/04/11 05:18:02;;;;;;;4.60;1.50;;;10.60;99.90;;;;;;5084183;28;20486;-71
2023/04/11 05:20:47;;;;;;;3.03;1.90;;;10.60;99.90;;;;;;5087353;28;20451;-71
2023/04/11 05:23:33;;;;;;;3.17;1.67;;;10.60;99.90;;;;;;5087865;28;20569;-72
2023/04/11 05:26:19;;;;;;;2.77;1.70;;;10.60;99.90;;;;;;5088104;28;20438;-71
2023/04/11 05:29:05;;;;;;;3.93;1.43;;;10.50;99.90;;;;;;5084667;28;20544;-70
2023/04/11 05:31:51;;;;;;;2.67;1.40;;;10.40;99.90;;;;;;5091549;28;20423;-71
2023/04/11 05:34:51;;;;;;;5.10;1.60;;;10.40;99.90;;;;;;5089142;28;20602;-71
2023/04/11 05:37:36;;;;;;;2.77;1.33;;;10.50;99.90;;;;;;5078858;28;20989;-72
2023/04/11 05:40:22;;;;;;;4.57;1.53;;;10.40;99.90;;;;;;5091569;28;20488;-72
2023/04/11 05:43:10;;;;;;;5.00;1.50;;;10.50;99.90;;;;;;5087600;28;20528;-71
2023/04/11 05:45:56;;;;;;;3.73;1.57;;;10.60;99.90;;;;;;5091625;28;20472;-72
2023/04/11 05:48:42;;;;;;;6.90;1.90;;;10.60;99.90;;;;;;5087799;28;20424;-71
2023/04/11 05:51:29;;;;;;;6.17;2.90;;;10.70;99.90;;;;;;5091101;28;20422;-71
2023/04/11 05:54:30;;;;;;;6.60;3.47;;;10.70;99.90;;;;;;5087318;28;21101;-73
2023/04/11 05:57:17;;;;;;;3.53;1.87;;;10.70;99.90;;;;;;5086196;28;20462;-72
2023/04/11 06:00:11;;;;;;;8.90;3.37;;;10.80;99.90;;;;;;5085384;28;20485;-73
2023/04/11 06:02:57;;;;;;;5.60;3.10;;;10.80;99.90;;;;;;5083696;28;21016;-71
2023/04/11 06:05:43;;;;;;;6.20;3.37;;;10.80;99.90;;;;;;5083700;28;20400;-71
2023/04/11 06:08:30;;;;;;;4.37;2.47;;;10.80;99.90;;;;;;5083708;28;20886;-70
2023/04/11 06:11:16;;;;;;;5.30;2.60;;;10.90;99.90;;;;;;5081288;28;20572;-71
2023/04/11 06:14:02;;;;;;;5.70;2.77;;;10.80;99.90;;;;;;5086268;28;21066;-71
2023/04/11 06:16:47;;;;;;;6.00;2.43;;;10.80;99.90;;;;;;5079915;28;20590;-71
2023/04/11 06:19:33;;;;;;;2.83;1.93;;;10.80;99.90;;;;;;5081421;28;20477;-72
2023/04/11 06:22:19;;;;;;;3.83;1.50;;;10.90;99.90;;;;;;5087984;28;20805;-71
2023/04/11 06:25:06;;;;;;;2.83;1.90;;;10.90;99.90;;;;;;5083519;28;20448;-71
2023/04/11 06:27:52;;;;;;;3.13;1.60;;;10.80;99.90;;;;;;5075708;28;20427;-72
2023/04/11 06:30:37;;;;;;;4.00;1.83;;;10.90;99.90;;;;;;5089189;28;20428;-71
2023/04/11 06:33:23;;;;;;;6.43;1.87;;;10.80;99.90;;;;;;5087495;28;20468;-72
2023/04/11 06:36:10;;;;;;;4.47;1.50;;;11.00;99.90;;;;;;5083223;28;20529;-72
2023/04/11 06:38:55;;;;;;;5.53;2.03;;;11.00;99.90;;;;;;5082485;28;20825;-72
2023/04/11 06:41:42;;;;;;;4.50;2.50;;;11.10;99.90;;;;;;5084133;28;20522;-71
2023/04/11 06:44:28;;;;;;;6.20;2.37;;;11.10;99.90;;;;;;5083312;28;20476;-71
2023/04/11 06:47:13;;;;;;;6.30;3.10;;;10.90;99.90;;;;;;5083504;28;20779;-70
2023/04/11 06:49:59;;;;;;;23.60;12.63;;;10.80;99.90;;;;;;5080580;28;20440;-71
2023/04/11 06:52:44;;;;;;;57.80;28.80;;;10.90;99.90;;;;;;5085001;28;20446;-71
2023/04/11 06:55:30;;;;;;;31.07;12.97;;;11.00;99.90;;;;;;5075564;28;20444;-73
2023/04/11 06:58:18;;;;;;;15.33;4.93;;;11.10;99.90;;;;;;5083084;28;20395;-71
2023/04/11 07:01:03;;;;;;;5.27;2.30;;;11.30;99.90;;;;;;5083123;28;20444;-73
2023/04/11 07:03:49;;;;;;;8.33;4.83;;;11.30;99.90;;;;;;5083387;28;20499;-71
2023/04/11 07:06:35;;;;;;;5.80;2.27;;;11.30;99.90;;;;;;5076422;28;20448;-71
2023/04/11 07:09:21;;;;;;;12.40;3.00;;;11.30;99.90;;;;;;5081530;28;20413;-71
2023/04/11 07:12:07;;;;;;;9.33;2.43;;;11.40;99.90;;;;;;5086443;28;20420;-71
2023/04/11 07:14:54;;;;;;;7.77;2.10;;;11.40;99.90;;;;;;5082066;28;20449;-72
2023/04/11 07:17:40;;;;;;;8.63;2.37;;;11.40;99.90;;;;;;5086189;28;20391;-71
2023/04/11 07:20:26;;;;;;;10.97;4.53;;;11.30;99.90;;;;;;5078888;28;20447;-70
2023/04/11 07:23:11;;;;;;;6.00;3.00;;;11.10;99.90;;;;;;5073430;28;20496;-71
2023/04/11 07:25:57;;;;;;;8.10;2.23;;;11.20;99.90;;;;;;5075808;28;20436;-71
2023/04/11 07:28:44;;;;;;;6.53;2.20;;;11.20;99.90;;;;;;5085387;28;20432;-72
2023/04/11 07:31:31;;;;;;;5.67;2.93;;;11.30;99.90;;;;;;5087197;28;20431;-72
2023/04/11 07:34:16;;;;;;;9.23;2.57;;;11.40;99.90;;;;;;5082984;28;21028;-72
2023/04/11 07:37:02;;;;;;;9.20;3.13;;;11.30;99.90;;;;;;5081744;28;20519;-71
2023/04/11 07:39:48;;;;;;;6.83;2.10;;;11.40;99.90;;;;;;5084778;28;20554;-71
2023/04/11 07:42:34;;;;;;;6.60;1.57;;;11.40;99.90;;;;;;5075835;28;20460;-70
2023/04/11 07:45:20;;;;;;;7.27;2.20;;;11.50;99.90;;;;;;5084263;28;20447;-73
2023/04/11 07:48:07;;;;;;;8.67;2.47;;;11.70;99.90;;;;;;5088207;28;20419;-71
2023/04/11 07:50:53;;;;;;;8.00;2.30;;;11.90;99.90;;;;;;5079152;28;20798;-71
2023/04/11 07:53:38;;;;;;;8.60;2.07;;;12.00;99.90;;;;;;5083439;28;20578;-72
2023/04/11 07:56:24;;;;;;;8.83;2.30;;;11.90;99.90;;;;;;5082083;28;20530;-71
2023/04/11 07:59:12;;;;;;;6.37;1.77;;;11.90;99.90;;;;;;5072695;28;20777;-70
2023/04/11 08:02:01;;;;;;;8.03;1.87;;;11.80;99.90;;;;;;5087139;28;20402;-71
2023/04/11 08:04:48;;;;;;;7.90;1.90;;;11.80;99.90;;;;;;5085157;28;20515;-71
2023/04/11 08:07:34;;;;;;;8.33;2.67;;;11.90;99.90;;;;;;5081088;28;20394;-71
2023/04/11 08:10:20;;;;;;;6.10;2.07;;;11.90;99.90;;;;;;5086942;28;20403;-71
2023/04/11 08:13:06;;;;;;;9.73;1.90;;;11.90;99.90;;;;;;5077879;28;20438;-71
2023/04/11 08:15:51;;;;;;;13.37;1.80;;;12.10;99.90;;;;;;5073557;28;20433;-71
2023/04/11 08:18:40;;;;;;;5.70;1.50;;;12.20;99.90;;;;;;5083555;28;20801;-71
2023/04/11 08:21:27;;;;;;;14.23;1.93;;;12.30;99.90;;;;;;5085314;28;20920;-71
2023/04/11 08:24:12;;;;;;;10.07;1.90;;;12.30;99.90;;;;;;5083008;28;20454;-71
2023/04/11 08:26:58;;;;;;;13.77;2.70;;;12.30;99.90;;;;;;5081501;28;20411;-71
2023/04/11 08:29:44;;;;;;;10.83;2.07;;;12.10;99.90;;;;;;5087957;28;20406;-70
2023/04/11 08:32:30;;;;;;;7.10;1.50;;;12.20;99.90;;;;;;5085490;28;20533;-72
2023/04/11 08:35:16;;;;;;;7.53;2.27;;;12.40;99.90;;;;;;5090259;22;20703;-71
2023/04/11 08:38:03;;;;;;;15.77;3.50;;;12.40;97.00;;;;;;5065843;28;20453;-71
2023/04/11 08:40:48;;;;;;;9.23;2.27;;;12.30;96.50;;;;;;5063259;28;20424;-71
2023/04/11 08:43:34;;;;;;;9.60;1.60;;;12.20;96.10;;;;;;5067252;28;20436;-71
2023/04/11 08:46:20;;;;;;;10.27;1.60;;;12.10;97.30;;;;;;5063782;28;20422;-71
2023/04/11 08:49:06;;;;;;;8.77;2.63;;;12.10;96.40;;;;;;5059522;28;20425;-71
2023/04/11 08:51:55;;;;;;;8.63;2.30;;;11.90;93.40;;;;;;5071920;28;20412;-71
2023/04/11 08:54:41;;;;;;;14.83;1.87;;;11.80;93.30;;;;;;5068312;28;20442;-71
2023/04/11 08:57:30;;;;;;;17.73;2.17;;;11.70;86.90;;;;;;5070586;28;20402;-71
2023/04/11 09:00:17;;;;;;;6.70;1.33;;;11.60;86.00;;;;;;5062537;28;20430;-71
2023/04/11 09:03:05;;;;;;;3.60;1.40;;;11.50;87.00;;;;;;5072183;28;20537;-71
2023/04/11 09:05:50;;;;;;;4.90;1.50;;;11.60;85.40;;;;;;5072153;28;20433;-71
2023/04/11 09:08:39;;;;;;;8.23;1.80;;;11.70;85.10;;;;;;5069652;28;20432;-71
2023/04/11 09:11:26;;;;;;;14.93;1.47;;;11.80;81.40;;;;;;5061822;28;20408;-71
2023/04/11 09:14:12;;;;;;;7.53;1.63;;;11.90;86.00;;;;;;5066864;28;20444;-71
2023/04/11 09:16:59;;;;;;;12.70;1.77;;;11.90;80.10;;;;;;5070635;28;20425;-71
2023/04/11 09:19:44;;;;;;;19.67;2.83;;;11.90;81.10;;;;;;5066603;28;20437;-71
2023/04/11 09:22:35;;;;;;;5.57;1.50;;;12.10;80.60;;;;;;5072813;28;20443;-71
2023/04/11 09:25:22;;;;;;;5.83;0.93;;;12.10;76.90;;;;;;5068443;28;20481;-71
2023/04/11 09:28:10;;;;;;;7.13;1.50;;;12.20;72.00;;;;;;5058184;28;20949;-71
2023/04/11 09:30:56;;;;;;;5.83;1.20;;;12.20;67.50;;;;;;5069799;28;20425;-71
2023/04/11 09:33:53;;;;;;;10.03;1.43;;;12.10;66.20;;;;;;5068302;28;20445;-71
2023/04/11 09:36:39;;;;;;;9.93;2.00;;;12.10;68.20;;;;;;5068067;28;20424;-71
2023/04/11 09:39:27;;;;;;;4.33;1.37;;;12.20;68.20;;;;;;5065265;28;20479;-71
2023/04/11 09:42:25;;;;;;;6.83;1.83;;;12.20;66.40;;;;;;5059887;28;20429;-71
2023/04/11 09:45:18;;;;;;;9.43;1.60;;;12.20;67.30;;;;;;5064656;28;20817;-71
2023/04/11 09:48:04;;;;;;;6.70;1.83;;;12.30;67.70;;;;;;5071726;28;20451;-71
2023/04/11 09:50:51;;;;;;;8.30;1.47;;;12.30;64.60;;;;;;5071941;28;20923;-71
2023/04/11 09:53:37;;;;;;;8.07;1.50;;;12.20;67.10;;;;;;5059929;28;20416;-71
2023/04/11 09:56:25;;;;;;;5.67;1.57;;;12.10;71.90;;;;;;5062647;28;20426;-71
2023/04/11 09:59:11;;;;;;;10.40;1.83;;;11.90;71.80;;;;;;5069347;28;20425;-72
2023/04/11 10:01:58;;;;;;;6.20;1.37;;;11.80;74.20;;;;;;5064937;28;20408;-72
2023/04/11 10:04:44;;;;;;;10.67;1.70;;;11.90;75.40;;;;;;5060114;28;20439;-72
2023/04/11 10:07:30;;;;;;;5.67;1.40;;;12.10;77.10;;;;;;5071017;28;20433;-72
2023/04/11 10:10:21;;;;;;;2.87;1.23;;;12.40;78.60;;;;;;5072722;28;20774;-71
2023/04/11 10:13:36;;;;;;;8.30;1.50;;;12.80;79.80;;;;;;5056213;28;20935;-72
2023/04/11 10:16:22;;;;;;;3.20;1.00;;;12.90;72.90;;;;;;5062605;28;20939;-72
2023/04/11 10:19:25;;;;;;;11.20;2.03;;;12.90;74.70;;;;;;5064651;28;20800;-72
2023/04/11 10:22:31;;;;;;;7.10;1.63;;;12.50;75.40;;;;;;5057416;28;20476;-71
2023/04/11 10:25:17;;;;;;;7.37;1.57;;;12.40;77.10;;;;;;5064802;28;20459;-72
2023/04/11 10:28:03;;;;;;;8.80;1.70;;;12.50;77.80;;;;;;5065576;28;20605;-72
2023/04/11 10:31:04;;;;;;;3.67;1.50;;;12.60;79.30;;;;;;5056091;28;20844;-71
2023/04/11 10:34:12;;;;;;;4.40;1.13;;;12.50;73.50;;;;;;5059577;28;20486;-72
2023/04/11 10:37:03;;;;;;;4.67;1.90;;;12.50;72.50;;;;;;5060566;28;20475;-72
2023/04/11 10:40:08;;;;;;;5.37;1.80;;;12.50;68.00;;;;;;5058605;28;20940;-72
2023/04/11 10:42:56;;;;;;;6.83;1.40;;;12.50;66.60;;;;;;5056320;28;20431;-71
2023/04/11 10:45:41;;;;;;;8.03;1.73;;;12.50;63.20;;;;;;5052688;28;20506;-72
2023/04/11 10:48:27;;;;;;;4.67;1.77;;;12.70;61.50;;;;;;5060618;28;20419;-72
2023/04/11 10:51:23;;;;;;;5.13;1.70;;;13.00;62.00;;;;;;5051979;28;20985;-72
2023/04/11 10:54:25;;;;;;;4.00;1.10;;;13.30;62.00;;;;;;5066751;28;20416;-72
2023/04/11 10:57:10;;;;;;;5.10;1.27;;;13.60;50.80;;;;;;5057961;28;20429;-72
2023/04/11 10:59:57;;;;;;;7.17;1.93;;;13.50;46.40;;;;;;5063974;28;20929;-72
2023/04/11 11:02:43;;;;;;;6.47;1.70;;;13.20;49.80;;;;;;5056034;28;20437;-72
2023/04/11 11:05:29;;;;;;;9.10;1.27;;;13.10;50.20;;;;;;5060039;28;20967;-72
2023/04/11 11:08:15;;;;;;;4.60;1.63;;;12.60;53.10;;;;;;5057833;28;20425;-72
2023/04/11 11:11:05;;;;;;;4.80;1.17;;;12.40;65.90;;;;;;5058465;28;20537;-72
2023/04/11 11:13:52;;;;;;;5.20;1.53;;;12.20;62.50;;;;;;5057122;28;20493;-72
2023/04/11 11:16:37;;;;;;;4.93;1.77;;;12.10;62.90;;;;;;5057599;28;20991;-72
2023/04/11 11:19:23;;;;;;;5.40;1.33;;;12.40;70.20;;;;;;5057464;28;21024;-72
2023/04/11 11:22:15;;;;;;;10.80;1.67;;;12.70;66.50;;;;;;5059856;28;20453;-72
2023/04/11 11:25:08;;;;;;;3.30;1.17;;;13.20;66.20;;;;;;5057817;28;20456;-72
2023/04/11 11:28:03;;;;;;;4.37;1.13;;;13.70;63.90;;;;;;5063414;28;20446;-72
2023/04/11 11:30:53;;;;;;;3.60;0.73;;;14.00;55.50;;;;;;5064194;28;21028;-71
2023/04/11 11:33:41;;;;;;;4.33;1.63;;;14.00;55.50;;;;;;5056920;28;20441;-72
2023/04/11 11:36:27;;;;;;;5.37;1.20;;;14.10;47.00;;;;;;5059214;28;20469;-72
2023/04/11 11:39:14;;;;;;;5.23;1.43;;;14.20;45.00;;;;;;5059214;28;20936;-72
2023/04/11 11:42:00;;;;;;;11.23;1.27;;;14.50;46.40;;;;;;5061074;28;20453;-72
2023/04/11 11:44:47;;;;;;;6.30;1.57;;;14.60;44.60;;;;;;5061345;28;21333;-72
2023/04/11 11:47:41;;;;;;;4.53;1.30;;;14.80;41.40;;;;;;5060313;28;21332;-72
2023/04/11 11:50:29;;;;;;;5.17;1.30;;;14.90;39.40;;;;;;5058568;28;20563;-71
2023/04/11 11:53:15;;;;;;;8.40;1.23;;;15.10;37.30;;;;;;5055128;28;20450;-72
2023/04/11 11:56:11;;;;;;;4.97;0.97;;;15.20;40.80;;;;;;5053039;28;20964;-72
2023/04/11 11:58:56;;;;;;;2.63;0.90;;;15.40;35.80;;;;;;5057990;28;20424;-72
2023/04/11 12:01:45;;;;;;;6.93;1.07;;;15.30;33.20;;;;;;5055872;28;20445;-72
2023/04/11 12:04:32;;;;;;;3.80;1.40;;;15.00;34.60;;;;;;5058305;28;20843;-72
2023/04/11 12:07:21;;;;;;;5.33;1.60;;;14.60;32.60;;;;;;5064301;28;20420;-72
2023/04/11 12:10:10;;;;;;;7.77;1.90;;;14.40;33.60;;;;;;5063027;28;20812;-72
2023/04/11 12:12:55;;;;;;;5.20;1.20;;;14.40;38.60;;;;;;5056205;28;20941;-72
2023/04/11 12:15:45;;;;;;;6.37;1.50;;;14.40;39.20;;;;;;5059112;28;20585;-72
2023/04/11 12:18:32;;;;;;;5.20;1.50;;;14.30;38.30;;;;;;5059107;28;20449;-72
2023/04/11 12:21:18;;;;;;;4.17;1.10;;;14.30;38.50;;;;;;5054828;28;20458;-72
2023/04/11 12:24:04;;;;;;;8.13;1.50;;;14.50;40.60;;;;;;5059814;28;20843;-72
2023/04/11 12:26:49;;;;;;;5.23;1.20;;;14.70;44.10;;;;;;5064560;28;20471;-72
2023/04/11 12:29:35;;;;;;;4.43;1.50;;;15.20;45.50;;;;;;5067734;28;21007;-72
2023/04/11 12:32:22;;;;;;;5.87;1.63;;;15.70;42.70;;;;;;5065791;28;20986;-72
2023/04/11 12:35:10;;;;;;;3.83;1.30;;;15.90;37.60;;;;;;5064915;28;20473;-72
2023/04/11 12:37:55;;;;;;;6.00;1.57;;;16.20;35.50;;;;;;5062703;28;20471;-72
2023/04/11 12:40:41;;;;;;;5.30;2.03;;;16.50;34.80;;;;;;5062902;28;20421;-72
2023/04/11 12:43:27;;;;;;;4.83;0.90;;;16.70;33.70;;;;;;5069270;28;20430;-72
2023/04/11 12:46:13;;;;;;;16.43;1.40;;;16.90;28.50;;;;;;5067667;28;20432;-72
2023/04/11 12:48:59;;;;;;;5.17;1.30;;;17.10;27.10;;;;;;5068227;28;20531;-72
2023/04/11 12:51:46;;;;;;;6.77;1.27;;;17.00;26.50;;;;;;5062408;28;20466;-72
2023/04/11 12:54:32;;;;;;;5.20;1.17;;;17.20;26.90;;;;;;5067411;28;20518;-72
2023/04/11 12:57:17;;;;;;;7.00;0.97;;;17.30;26.50;;;;;;5065419;28;20420;-72
2023/04/11 13:00:07;;;;;;;5.07;1.00;;;16.90;25.00;;;;;;5057975;28;20450;-72
2023/04/11 13:02:53;;;;;;;5.77;1.27;;;16.30;24.30;;;;;;5066656;28;20433;-72
2023/04/11 13:05:38;;;;;;;4.77;1.17;;;15.70;25.00;;;;;;5068438;28;20493;-72
2023/04/11 13:08:26;;;;;;;6.67;1.37;;;15.20;26.60;;;;;;5061654;28;20443;-72
2023/04/11 13:11:11;;;;;;;5.30;1.30;;;15.10;29.00;;;;;;5067280;28;20805;-72
2023/04/11 13:13:57;;;;;;;5.30;2.00;;;15.20;27.80;;;;;;5072838;28;20568;-72
2023/04/11 13:16:44;;;;;;;3.70;1.00;;;15.40;29.40;;;;;;5059456;28;20413;-72
2023/04/11 13:19:30;;;;;;;3.60;1.10;;;15.60;28.00;;;;;;5055980;28;20400;-72
2023/04/11 13:22:16;;;;;;;8.00;1.53;;;15.30;26.90;;;;;;5066873;28;20404;-72
2023/04/11 13:25:03;;;;;;;7.30;1.40;;;15.20;27.50;;;;;;5065552;28;20813;-72
2023/04/11 13:27:48;;;;;;;12.30;1.20;;;15.20;28.20;;;;;;5062441;28;20451;-72
2023/04/11 13:30:34;;;;;;;4.80;1.10;;;15.40;28.70;;;;;;5067285;28;20419;-72
2023/04/11 13:33:20;;;;;;;3.33;1.07;;;15.20;28.40;;;;;;5071645;28;20411;-72
2023/04/11 13:36:06;;;;;;;7.60;1.50;;;15.10;29.60;;;;;;5067611;28;20428;-72
2023/04/11 13:38:54;;;;;;;6.37;1.83;;;15.10;29.50;;;;;;5054112;28;20496;-72
2023/04/11 13:41:41;;;;;;;5.80;1.13;;;14.90;30.10;;;;;;5067987;28;20535;-72
2023/04/11 13:44:26;;;;;;;6.10;1.70;;;14.90;32.90;;;;;;5058721;28;20589;-72
2023/04/11 13:47:12;;;;;;;4.13;1.20;;;14.70;36.60;;;;;;5058169;28;20447;-72
2023/04/11 13:49:58;;;;;;;6.07;1.40;;;14.60;39.50;;;;;;5052470;28;21003;-72
2023/04/11 13:52:44;;;;;;;6.30;1.80;;;14.70;41.10;;;;;;5064894;28;20583;-72
2023/04/11 13:55:30;;;;;;;7.33;1.23;;;14.60;44.90;;;;;;5058820;28;20434;-72
2023/04/11 13:58:17;;;;;;;6.77;1.30;;;14.60;43.20;;;;;;5056848;28;20444;-72
2023/04/11 14:01:03;;;;;;;7.23;1.40;;;14.90;40.60;;;;;;5059882;28;20430;-72
2023/04/11 14:03:49;;;;;;;5.20;1.37;;;15.20;36.30;;;;;;5055189;28;20428;-72
2023/04/11 14:06:36;;;;;;;5.17;1.23;;;15.30;36.30;;;;;;5059769;28;20425;-72
2023/04/11 14:09:21;;;;;;;6.60;1.43;;;15.60;37.10;;;;;;5053964;28;20805;-72
2023/04/11 14:12:07;;;;;;;6.40;1.53;;;16.10;33.30;;;;;;5059393;28;20416;-72
2023/04/11 14:14:54;;;;;;;4.07;1.30;;;16.70;35.10;;;;;;5058192;28;20509;-72
2023/04/11 14:17:42;;;;;;;4.37;1.20;;;17.00;28.60;;;;;;5065602;28;20443;-72
2023/04/11 14:20:28;;;;;;;4.13;0.93;;;17.10;25.80;;;;;;5059031;28;20446;-72
2023/04/11 14:23:15;;;;;;;6.90;1.87;;;17.40;24.30;;;;;;5056497;28;21041;-72
2023/04/11 14:26:01;;;;;;;6.03;1.20;;;17.10;22.60;;;;;;5060472;28;20587;-72
2023/04/11 14:28:46;;;;;;;6.30;1.53;;;16.50;23.60;;;;;;5066540;28;20933;-72